Time;durP1;ratioP1;P1;durP2;ratioP2;P2;SDS_P1;SDS_P2;PMS_P1;PMS_P2;Temp;Humidity;BMP_temperature;BMP_pressure;BME280_temperature;BME280_humidity;BME280_pressure;Samples;Min_cycle;Max_cycle;Signal;HPM_P1;HPM_P2
2023/12/30 00:01:20;;;;;;;6.43;4.00;;;;;;;4.63;77.72;95761.78;5132656;27;20465;-53
2023/12/30 00:03:49;;;;;;;10.37;3.47;;;;;;;4.70;77.10;95752.03;5132853;27;20437;-54
2023/12/30 00:06:19;;;;;;;4.20;2.37;;;;;;;4.61;77.99;95763.03;5131843;27;20554;-53
2023/12/30 00:08:48;;;;;;;9.50;3.90;;;;;;;4.36;79.60;95761.31;5132790;27;20938;-55
2023/12/30 00:11:17;;;;;;;7.70;5.30;;;;;;;4.39;79.62;95762.69;5131941;27;21009;-54
2023/12/30 00:13:45;;;;;;;7.17;2.97;;;;;;;4.38;80.39;95766.31;5132603;27;20439;-54
2023/12/30 00:16:14;;;;;;;7.00;4.97;;;;;;;4.43;79.93;95769.91;5131879;27;20450;-53
2023/12/30 00:18:44;;;;;;;5.70;3.50;;;;;;;4.21;82.95;95774.00;5132760;27;20438;-53
2023/12/30 00:21:13;;;;;;;5.30;4.80;;;;;;;4.36;81.67;95774.44;5132135;27;20758;-54
2023/12/30 00:23:43;;;;;;;2.70;2.53;;;;;;;4.40;81.22;95769.56;5132127;27;20434;-54
2023/12/30 00:26:20;;;;;;;2.83;1.80;;;;;;;4.52;81.26;95767.00;5131687;27;20431;-54
2023/12/30 00:28:49;;;;;;;3.63;2.10;;;;;;;4.34;80.99;95759.94;5132523;27;20805;-54
2023/12/30 00:31:25;;;;;;;3.67;1.93;;;;;;;4.36;81.88;95768.38;5131557;27;20471;-54
2023/12/30 00:33:57;;;;;;;1.60;1.30;;;;;;;4.35;81.25;95756.28;5132252;27;20469;-54
2023/12/30 00:36:26;;;;;;;2.97;1.70;;;;;;;4.35;80.32;95766.78;5131401;28;20434;-55
2023/12/30 00:38:55;;;;;;;7.93;3.00;;;;;;;4.35;79.91;95769.41;5132156;28;20869;-53
2023/12/30 00:41:24;;;;;;;2.60;2.47;;;;;;;4.31;80.19;95765.59;5132039;27;20446;-54
2023/12/30 00:43:52;;;;;;;2.67;2.57;;;;;;;4.19;79.31;95738.50;5132189;27;20442;-54
2023/12/30 00:46:23;;;;;;;3.07;2.87;;;;;;;4.34;79.30;95762.56;5131628;27;20487;-55
2023/12/30 00:48:51;;;;;;;3.10;2.80;;;;;;;4.37;78.81;95767.38;5132369;27;20439;-55
2023/12/30 00:51:26;;;;;;;3.13;2.00;;;;;;;4.12;80.26;95746.47;5132190;27;20493;-54
2023/12/30 00:53:55;;;;;;;4.20;1.90;;;;;;;4.23;80.42;95763.28;5130780;27;20495;-54
2023/12/30 00:56:23;;;;;;;11.63;2.40;;;;;;;4.31;79.43;95765.59;5134977;27;20518;-56
2023/12/30 00:58:52;;;;;;;2.37;1.33;;;;;;;4.33;79.57;95766.19;5136334;27;20514;-55
2023/12/30 01:01:21;;;;;;;3.33;3.13;;;;;;;4.27;79.40;95756.59;5136392;27;20810;-54
2023/12/30 01:03:49;;;;;;;1.57;1.10;;;;;;;4.24;79.18;95760.44;5136413;27;20814;-54
2023/12/30 01:06:18;;;;;;;14.20;2.37;;;;;;;4.29;78.86;95771.09;5136050;27;20852;-53
2023/12/30 01:08:48;;;;;;;3.40;1.30;;;;;;;4.26;79.01;95760.22;5136389;27;20445;-54
2023/12/30 01:11:17;;;;;;;1.00;1.00;;;;;;;4.26;79.09;95761.03;5136028;27;21014;-53
2023/12/30 01:13:45;;;;;;;12.13;2.20;;;;;;;4.25;78.83;95756.78;5136379;27;20438;-53
2023/12/30 01:16:15;;;;;;;4.83;1.37;;;;;;;4.19;79.32;95757.69;5135619;27;20965;-53
2023/12/30 01:18:45;;;;;;;1.27;1.17;;;;;;;4.19;80.46;95767.38;5135979;27;20525;-54
2023/12/30 01:21:13;;;;;;;5.50;2.23;;;;;;;4.23;79.70;95763.28;5135325;27;20430;-54
2023/12/30 01:23:42;;;;;;;2.80;2.27;;;;;;;4.14;80.17;95757.53;5136103;27;20431;-54
2023/12/30 01:26:12;;;;;;;1.10;1.10;;;;;;;4.20;79.83;95759.25;5135795;27;20426;-54
2023/12/30 01:28:40;;;;;;;1.20;1.10;;;;;;;4.19;79.04;95755.06;5135504;27;20946;-54
2023/12/30 01:31:09;;;;;;;3.90;1.37;;;;;;;4.16;79.10;95765.16;5135572;27;20469;-54
2023/12/30 01:33:38;;;;;;;1.93;1.83;;;;;;;4.22;79.85;95756.44;5136334;27;20441;-54
2023/12/30 01:36:07;;;;;;;1.77;1.67;;;;;;;4.17;79.65;95749.22;5129389;27;20518;-54
2023/12/30 01:38:36;;;;;;;1.07;0.67;;;;;;;4.24;79.54;95757.00;5128453;27;20438;-54
2023/12/30 01:41:04;;;;;;;0.57;0.57;;;;;;;4.21;79.36;95760.88;5109089;27;20497;-54
2023/12/30 01:43:34;;;;;;;1.10;1.07;;;;;;;4.23;79.13;95750.16;5135244;27;20473;-54
2023/12/30 01:46:08;;;;;;;0.70;0.70;;;;;;;4.19;79.09;95756.88;5135874;27;20434;-54
2023/12/30 01:48:37;;;;;;;0.90;0.90;;;;;;;4.15;79.36;95747.84;5134959;27;20426;-54
2023/12/30 01:51:07;;;;;;;1.50;1.00;;;;;;;4.11;79.22;95751.91;5134989;27;20489;-54
2023/12/30 01:53:53;;;;;;;0.67;0.67;;;;;;;4.16;79.31;95742.38;5135093;27;20502;-55
2023/12/30 01:56:23;;;;;;;2.60;1.10;;;;;;;4.15;79.62;95750.47;5135687;27;20450;-54
2023/12/30 01:58:54;;;;;;;1.07;0.93;;;;;;;4.14;79.72;95749.66;5134658;27;20439;-54
2023/12/30 02:01:22;;;;;;;1.90;0.93;;;;;;;4.06;79.67;95736.03;5135271;27;20431;-54
2023/12/30 02:03:52;;;;;;;0.53;0.53;;;;;;;4.07;79.99;95742.88;5135363;27;20753;-54
2023/12/30 02:06:20;;;;;;;2.73;1.70;;;;;;;3.43;79.59;95652.38;5134429;27;20525;-54
2023/12/30 02:08:49;;;;;;;2.93;1.67;;;;;;;4.08;79.22;95740.03;5135229;27;20439;-54
2023/12/30 02:11:18;;;;;;;0.63;0.63;;;;;;;4.06;78.81;95736.03;5134740;27;20477;-54
2023/12/30 02:13:46;;;;;;;1.70;1.37;;;;;;;3.69;79.84;95685.38;5134766;27;20462;-55
2023/12/30 02:16:16;;;;;;;1.93;1.83;;;;;;;3.66;79.34;95673.53;5121425;27;20456;-55
2023/12/30 02:18:45;;;;;;;1.13;1.07;;;;;;;4.02;80.23;95730.44;5135226;27;20445;-55
2023/12/30 02:21:14;;;;;;;1.80;1.33;;;;;;;3.96;80.03;95722.59;5134418;27;20950;-54
2023/12/30 02:23:44;;;;;;;1.10;1.10;;;;;;;3.68;80.24;95691.63;5134830;27;20508;-54
2023/12/30 02:26:12;;;;;;;1.10;0.90;;;;;;;3.89;79.93;95719.25;5134867;27;20464;-54
2023/12/30 02:28:41;;;;;;;1.17;1.07;;;;;;;3.91;79.99;95725.09;5134574;27;20442;-55
2023/12/30 02:31:09;;;;;;;1.07;1.03;;;;;;;3.90;80.34;95710.38;5134642;27;20997;-54
2023/12/30 02:33:38;;;;;;;0.80;0.60;;;;;;;3.80;80.47;95693.31;5134863;27;20438;-54
2023/12/30 02:36:07;;;;;;;2.27;2.10;;;;;;;3.83;79.85;95711.25;5134689;27;20444;-55
2023/12/30 02:38:36;;;;;;;1.03;1.03;;;;;;;3.90;81.00;95721.66;5133819;27;20435;-54
2023/12/30 02:41:06;;;;;;;1.37;1.27;;;;;;;3.83;80.38;95721.72;5134360;27;20449;-54
2023/12/30 02:43:42;;;;;;;1.10;0.50;;;;;;;3.84;80.42;95733.03;5133995;27;20442;-56
2023/12/30 02:46:11;;;;;;;0.43;0.43;;;;;;;3.80;80.06;95719.53;5134971;27;20438;-54
2023/12/30 02:48:39;;;;;;;2.00;1.90;;;;;;;3.77;80.25;95722.59;5134378;27;20939;-54
2023/12/30 02:51:08;;;;;;;0.90;0.80;;;;;;;3.65;80.54;95713.84;5134142;27;20562;-55
2023/12/30 02:53:37;;;;;;;2.20;1.53;;;;;;;3.70;80.49;95721.06;5134105;27;20845;-55
2023/12/30 02:56:18;;;;;;;3.90;0.70;;;;;;;3.66;80.98;95728.56;5134430;27;20949;-55
2023/12/30 02:58:49;;;;;;;2.30;1.63;;;;;;;3.67;80.68;95726.72;5133520;27;20514;-55
2023/12/30 03:01:18;;;;;;;1.20;1.20;;;;;;;3.64;80.16;95721.94;5134448;27;20799;-54
2023/12/30 03:03:47;;;;;;;1.17;1.10;;;;;;;3.68;80.30;95734.38;5134697;27;20452;-54
2023/12/30 03:06:15;;;;;;;1.50;1.00;;;;;;;3.62;81.16;95729.19;5133924;27;20442;-53
2023/12/30 03:08:44;;;;;;;0.57;0.50;;;;;;;3.59;80.67;95721.78;5134609;27;20434;-54
2023/12/30 03:11:14;;;;;;;0.67;0.40;;;;;;;3.63;80.24;95730.81;5133820;27;20471;-55
2023/12/30 03:13:43;;;;;;;1.33;0.67;;;;;;;3.63;80.46;95738.66;5133392;27;20437;-54
2023/12/30 03:16:14;;;;;;;2.00;1.80;;;;;;;3.58;80.55;95723.59;5132949;27;20958;-54
2023/12/30 03:18:43;;;;;;;0.50;0.40;;;;;;;3.56;80.29;95725.63;5133416;27;20434;-54
2023/12/30 03:21:14;;;;;;;0.77;0.53;;;;;;;3.49;81.36;95730.09;5133781;27;20439;-54
2023/12/30 03:23:43;;;;;;;1.00;1.00;;;;;;;3.49;81.41;95718.84;5134210;27;20501;-54
2023/12/30 03:26:12;;;;;;;1.03;0.87;;;;;;;3.46;81.51;95720.06;5134067;27;20491;-54
2023/12/30 03:28:42;;;;;;;1.13;1.10;;;;;;;3.41;81.81;95722.53;5133592;27;20446;-54
2023/12/30 03:31:21;;;;;;;1.03;0.60;;;;;;;3.37;81.67;95718.72;5133474;27;20469;-54
2023/12/30 03:33:49;;;;;;;1.87;1.73;;;;;;;3.34;82.00;95721.78;5133582;27;20540;-54
2023/12/30 03:36:18;;;;;;;4.93;0.83;;;;;;;3.41;81.91;95724.34;5133598;27;20892;-54
2023/12/30 03:38:48;;;;;;;1.20;0.73;;;;;;;3.32;81.71;95707.28;5132971;27;20463;-54
2023/12/30 03:41:18;;;;;;;0.50;0.50;;;;;;;3.41;81.77;95722.53;5133409;27;20442;-54
2023/12/30 03:43:48;;;;;;;1.67;1.57;;;;;;;3.49;82.27;95729.31;5132550;27;20445;-54
2023/12/30 03:46:18;;;;;;;1.77;1.00;;;;;;;3.19;84.25;95757.94;5132823;27;20510;-54
2023/12/30 03:48:47;;;;;;;0.70;0.70;;;;;;;3.01;87.20;95737.72;5132756;27;20439;-55
2023/12/30 03:51:15;;;;;;;1.43;1.33;;;;;;;3.05;85.24;95743.34;5132723;27;20546;-54
2023/12/30 03:53:44;;;;;;;4.10;2.97;;;;;;;2.66;85.76;95748.84;5132642;27;20490;-55
2023/12/30 03:56:12;;;;;;;7.23;3.93;;;;;;;2.03;90.20;95753.91;5133237;27;20462;-55
2023/12/30 03:58:41;;;;;;;46.00;11.07;;;;;;;1.80;93.79;95753.53;5132805;27;20446;-55
2023/12/30 04:01:11;;;;;;;39.30;7.90;;;;;;;1.90;93.14;95756.53;5133395;27;20781;-54
2023/12/30 04:03:40;;;;;;;22.37;4.80;;;;;;;1.88;93.73;95759.38;5132536;27;20439;-54
2023/12/30 04:06:17;;;;;;;14.33;5.83;;;;;;;2.00;93.23;95761.38;5133288;27;20434;-54
2023/12/30 04:08:45;;;;;;;12.80;2.70;;;;;;;2.28;92.07;95754.81;5107815;27;20430;-54
2023/12/30 04:11:14;;;;;;;9.20;1.80;;;;;;;2.20;91.75;95760.28;5132422;27;20442;-54
2023/12/30 04:13:43;;;;;;;1.00;1.00;;;;;;;2.14;92.65;95750.66;5132945;27;20504;-55
2023/12/30 04:16:13;;;;;;;3.70;2.50;;;;;;;2.13;94.15;95756.88;5132516;27;20430;-54
2023/12/30 04:18:41;;;;;;;12.10;4.83;;;;;;;2.18;93.05;95751.84;5132332;27;20495;-55
2023/12/30 04:21:10;;;;;;;15.30;3.93;;;;;;;2.32;91.51;95757.84;5132150;27;20444;-54
2023/12/30 04:23:39;;;;;;;4.77;2.03;;;;;;;2.27;90.16;95761.06;5122072;27;20439;-54
2023/12/30 04:26:07;;;;;;;1.17;1.10;;;;;;;2.32;90.51;95756.03;5129978;27;20434;-55
2023/12/30 04:28:36;;;;;;;1.53;1.43;;;;;;;2.37;91.14;95758.00;5132451;27;20492;-55
2023/12/30 04:31:05;;;;;;;3.43;2.80;;;;;;;1.88;92.57;95712.31;5131329;27;20466;-54
2023/12/30 04:33:35;;;;;;;2.70;2.10;;;;;;;2.19;92.34;95735.16;5132405;27;20867;-54
2023/12/30 04:36:04;;;;;;;6.90;1.87;;;;;;;2.43;91.07;95755.38;5132711;27;20467;-54
2023/12/30 04:38:33;;;;;;;1.23;1.13;;;;;;;2.34;90.44;95764.47;5132480;27;20442;-54
2023/12/30 04:41:01;;;;;;;2.60;1.83;;;;;;;2.28;89.23;95749.59;5132588;28;20435;-54
2023/12/30 04:43:30;;;;;;;2.53;2.13;;;;;;;2.45;87.91;95776.88;5131918;27;20434;-54
2023/12/30 04:45:59;;;;;;;2.10;1.40;;;;;;;2.46;86.93;95780.31;5124971;28;20533;-54
2023/12/30 04:48:27;;;;;;;2.33;1.57;;;;;;;2.51;86.28;95783.09;5126320;28;20438;-54
2023/12/30 04:50:57;;;;;;;9.10;1.40;;;;;;;2.44;85.71;95787.56;5131860;28;20958;-54
2023/12/30 04:53:26;;;;;;;5.70;1.30;;;;;;;2.44;85.87;95783.13;5130968;27;20470;-53
2023/12/30 04:55:55;;;;;;;0.97;0.97;;;;;;;2.55;86.79;95776.47;5132289;28;20821;-54
2023/12/30 04:58:23;;;;;;;0.53;0.53;;;;;;;2.91;85.42;95781.91;5131646;28;20943;-54
2023/12/30 05:00:52;;;;;;;1.90;1.37;;;;;;;3.12;83.16;95778.16;5132582;27;20444;-54
2023/12/30 05:03:21;;;;;;;1.53;0.50;;;;;;;3.31;83.63;95774.63;5132200;28;20951;-54
2023/12/30 05:05:51;;;;;;;1.63;1.03;;;;;;;3.45;81.70;95786.59;5124013;27;20951;-55
2023/12/30 05:08:21;;;;;;;1.37;0.87;;;;;;;3.46;87.62;95788.22;5129161;28;20555;-55
2023/12/30 05:10:49;;;;;;;1.50;1.40;;;;;;;3.57;82.03;95781.44;5132288;28;20454;-55
2023/12/30 05:13:18;;;;;;;2.47;2.13;;;;;;;3.49;80.04;95782.50;5131793;27;20473;-54
2023/12/30 05:15:48;;;;;;;2.10;1.90;;;;;;;3.22;79.91;95786.34;5131892;28;20900;-54
2023/12/30 05:18:17;;;;;;;4.17;3.77;;;;;;;2.73;82.38;95786.25;5131499;27;20435;-54
2023/12/30 05:20:45;;;;;;;7.23;3.60;;;;;;;2.73;84.63;95794.09;5132195;27;20519;-55
2023/12/30 05:23:14;;;;;;;3.23;3.03;;;;;;;2.79;84.24;95793.25;5131734;28;20434;-54
2023/12/30 05:25:44;;;;;;;3.57;3.47;;;;;;;2.86;84.16;95784.34;5131614;28;20442;-54
2023/12/30 05:28:13;;;;;;;4.63;2.83;;;;;;;3.13;83.26;95793.66;5130972;28;20522;-54
2023/12/30 05:30:41;;;;;;;1.90;1.80;;;;;;;3.42;82.48;95797.47;5131816;28;20444;-55
2023/12/30 05:33:10;;;;;;;8.40;2.70;;;;;;;3.66;82.78;95788.84;5131664;28;21067;-55
2023/12/30 05:35:40;;;;;;;3.57;2.10;;;;;;;3.55;79.28;95771.19;5131193;28;20938;-54
2023/12/30 05:38:12;;;;;;;3.60;2.40;;;;;;;3.60;78.96;95786.25;5131816;28;20431;-54
2023/12/30 05:40:41;;;;;;;2.70;2.20;;;;;;;3.68;78.36;95786.81;5131069;27;20441;-54
2023/12/30 05:43:11;;;;;;;2.03;1.87;;;;;;;3.67;77.87;95774.72;5134968;27;20491;-54
2023/12/30 05:45:41;;;;;;;3.70;2.00;;;;;;;3.76;78.08;95778.69;5134731;27;20434;-54
2023/12/30 05:48:10;;;;;;;2.60;2.43;;;;;;;3.74;77.67;95769.44;5135405;27;20483;-54
2023/12/30 05:50:39;;;;;;;3.27;2.10;;;;;;;4.12;88.41;95777.13;5135280;27;20847;-55
2023/12/30 05:53:07;;;;;;;1.47;1.40;;;;;;;4.14;84.20;95780.31;5135436;27;20511;-55
2023/12/30 05:55:36;;;;;;;2.40;2.30;;;;;;;3.81;81.58;95736.06;5135015;27;20973;-56
2023/12/30 05:58:05;;;;;;;4.10;3.30;;;;;;;3.58;80.33;95707.88;5134829;27;20442;-55
2023/12/30 06:00:36;;;;;;;8.00;2.73;;;;;;;3.74;78.95;95788.56;5135875;27;20527;-55
2023/12/30 06:03:05;;;;;;;4.07;3.87;;;;;;;3.45;79.30;95791.03;5121721;27;20901;-56
2023/12/30 06:05:34;;;;;;;3.23;2.87;;;;;;;3.40;77.73;95801.34;5135205;27;20446;-55
2023/12/30 06:08:02;;;;;;;3.80;3.60;;;;;;;2.81;77.61;95799.88;5134774;27;20434;-54
2023/12/30 06:10:31;;;;;;;7.50;4.40;;;;;;;2.32;78.66;95816.19;5128189;27;20814;-55
2023/12/30 06:13:00;;;;;;;1.90;1.80;;;;;;;2.71;78.82;95812.59;5130032;27;20469;-54
2023/12/30 06:15:29;;;;;;;7.20;2.83;;;;;;;3.43;78.11;95809.59;5135111;27;20466;-54
2023/12/30 06:17:58;;;;;;;5.43;2.47;;;;;;;3.47;74.00;95813.38;5135151;27;20491;-54
2023/12/30 06:20:27;;;;;;;1.87;1.77;;;;;;;3.59;73.52;95814.28;5134604;27;20865;-54
2023/12/30 06:22:56;;;;;;;3.70;3.23;;;;;;;3.82;72.90;95811.88;5134759;27;20495;-54
2023/12/30 06:25:24;;;;;;;6.50;3.23;;;;;;;3.93;71.74;95817.44;5134970;27;20519;-55
2023/12/30 06:27:53;;;;;;;3.40;2.33;;;;;;;4.07;71.28;95817.13;5129093;27;20466;-55
2023/12/30 06:30:21;;;;;;;2.57;2.37;;;;;;;4.13;70.77;95812.81;5118165;27;20433;-55
2023/12/30 06:32:50;;;;;;;1.93;1.83;;;;;;;4.19;70.79;95814.56;5134616;27;20474;-55
2023/12/30 06:35:20;;;;;;;2.50;2.40;;;;;;;4.26;70.36;95810.88;5134447;27;20561;-55
2023/12/30 06:37:49;;;;;;;3.60;2.10;;;;;;;4.31;71.01;95800.53;5134580;27;20599;-55
2023/12/30 06:40:18;;;;;;;1.63;1.03;;;;;;;4.39;71.96;95813.38;5134159;27;20454;-55
2023/12/30 06:42:47;;;;;;;1.83;1.73;;;;;;;4.50;71.26;95817.09;5134924;27;20439;-55
2023/12/30 06:45:15;;;;;;;8.67;3.33;;;;;;;4.76;70.93;95801.00;5127061;27;20452;-54
2023/12/30 06:47:44;;;;;;;3.27;2.47;;;;;;;5.16;69.67;95808.38;5128592;27;20518;-55
2023/12/30 06:50:13;;;;;;;4.07;2.80;;;;;;;5.20;69.69;95799.03;5133764;27;20943;-55
2023/12/30 06:52:43;;;;;;;2.00;1.90;;;;;;;5.46;68.95;95807.34;5132883;27;20466;-55
2023/12/30 06:55:13;;;;;;;7.03;2.77;;;;;;;5.70;68.10;95821.31;5133592;27;20475;-55
2023/12/30 06:57:53;;;;;;;8.13;2.63;;;;;;;5.50;67.99;95791.91;5133858;27;20487;-56
2023/12/30 07:00:22;;;;;;;2.47;2.37;;;;;;;5.55;68.88;95821.75;5133494;27;20434;-56
2023/12/30 07:02:51;;;;;;;3.43;3.23;;;;;;;5.66;67.84;95817.56;5133621;27;20491;-55
2023/12/30 07:05:19;;;;;;;4.50;2.13;;;;;;;5.75;67.77;95818.81;5123488;27;20446;-55
2023/12/30 07:07:49;;;;;;;3.30;3.17;;;;;;;5.48;68.74;95822.88;5115425;27;20480;-56
2023/12/30 07:10:18;;;;;;;1.83;1.73;;;;;;;5.64;67.29;95825.66;5126161;27;20442;-55
2023/12/30 07:12:47;;;;;;;2.20;1.43;;;;;;;5.12;67.85;95827.22;5125687;27;20496;-55
2023/12/30 07:15:16;;;;;;;1.57;1.47;;;;;;;4.86;68.85;95840.69;5129240;27;20485;-54
2023/12/30 07:17:47;;;;;;;1.53;1.43;;;;;;;4.97;68.38;95836.50;5132737;27;20431;-56
2023/12/30 07:20:16;;;;;;;1.63;1.50;;;;;;;4.61;69.76;95845.22;5133246;27;20442;-54
2023/12/30 07:22:45;;;;;;;2.83;2.73;;;;;;;5.00;70.74;95842.13;5132925;27;20445;-55
2023/12/30 07:25:15;;;;;;;1.30;1.13;;;;;;;5.00;70.27;95830.81;5132736;27;20435;-55
2023/12/30 07:27:43;;;;;;;10.83;2.10;;;;;;;5.33;70.42;95846.16;5133343;27;20442;-55
2023/12/30 07:30:13;;;;;;;2.30;1.40;;;;;;;5.57;70.41;95851.25;5133448;27;20438;-55
2023/12/30 07:32:41;;;;;;;2.57;2.30;;;;;;;5.86;69.74;95852.25;5133127;27;20806;-56
2023/12/30 07:35:10;;;;;;;3.50;2.30;;;;;;;5.97;68.40;95843.56;5132857;27;20475;-55
2023/12/30 07:37:38;;;;;;;5.30;2.90;;;;;;;6.33;67.81;95843.38;5133632;27;20844;-55
2023/12/30 07:40:09;;;;;;;7.47;2.10;;;;;;;6.55;66.60;95855.97;5132941;27;20438;-56
2023/12/30 07:42:39;;;;;;;4.13;3.87;;;;;;;6.44;68.12;95862.03;5132561;27;20466;-55
2023/12/30 07:45:08;;;;;;;3.67;3.50;;;;;;;6.84;68.38;95863.69;5132963;27;20434;-55
2023/12/30 07:47:37;;;;;;;2.37;2.27;;;;;;;7.24;66.68;95839.16;5132487;27;20517;-55
2023/12/30 07:50:07;;;;;;;7.20;3.33;;;;;;;7.41;66.47;95853.22;5132757;27;20470;-54
2023/12/30 07:52:36;;;;;;;2.03;1.93;;;;;;;7.82;65.75;95852.88;5132826;27;20470;-55
2023/12/30 07:55:05;;;;;;;3.30;2.80;;;;;;;8.29;63.99;95845.47;5132094;27;20466;-54
2023/12/30 07:57:34;;;;;;;2.83;2.50;;;;;;;8.26;63.35;95823.00;5132758;27;20517;-55
2023/12/30 08:00:06;;;;;;;2.70;2.60;;;;;;;8.81;62.11;95843.28;5132271;27;20954;-54
2023/12/30 08:02:34;;;;;;;3.90;3.60;;;;;;;9.12;61.19;95847.09;5132755;27;20555;-55
2023/12/30 08:05:03;;;;;;;2.53;2.33;;;;;;;9.78;58.74;95845.94;5132119;27;20435;-56
2023/12/30 08:07:32;;;;;;;6.73;3.83;;;;;;;9.94;58.62;95847.69;5132688;27;20442;-57
2023/12/30 08:10:01;;;;;;;10.70;4.77;;;;;;;9.81;59.05;95842.81;5132592;27;20442;-56
2023/12/30 08:12:29;;;;;;;5.43;3.93;;;;;;;9.79;58.42;95843.03;5133081;27;20498;-57
2023/12/30 08:14:58;;;;;;;6.50;3.20;;;;;;;10.13;57.14;95838.34;5132303;27;20553;-55
2023/12/30 08:17:28;;;;;;;7.33;4.90;;;;;;;10.84;55.56;95839.59;5132929;27;20434;-58
2023/12/30 08:19:57;;;;;;;10.20;4.00;;;;;;;10.75;54.69;95844.56;5131860;27;20442;-57
2023/12/30 08:22:26;;;;;;;6.67;4.80;;;;;;;10.66;67.10;95847.97;5132572;27;20449;-50
2023/12/30 08:24:54;;;;;;;3.47;3.37;;;;;;;11.80;71.27;95855.88;5132473;27;20453;-49
2023/12/30 08:27:23;;;;;;;4.30;3.83;;;;;;;11.84;65.68;95849.00;5132227;27;20950;-49
2023/12/30 08:29:52;;;;;;;4.50;4.20;;;;;;;12.61;58.44;95852.16;5132803;27;20505;-48
2023/12/30 08:32:20;;;;;;;11.00;4.03;;;;;;;13.17;62.31;95849.38;5131909;27;20438;-49
2023/12/30 08:34:50;;;;;;;4.97;3.57;;;;;;;13.07;59.89;95850.22;5132549;27;20465;-49
2023/12/30 08:37:19;;;;;;;2.67;2.47;;;;;;;12.85;58.08;95846.28;5131017;27;20772;-49
2023/12/30 08:39:48;;;;;;;6.33;2.50;;;;;;;13.01;57.92;95859.25;5132685;27;20430;-49
2023/12/30 08:42:16;;;;;;;4.93;2.47;;;;;;;13.45;57.75;95853.25;5131836;27;20823;-49
2023/12/30 08:44:45;;;;;;;5.60;2.27;;;;;;;12.73;56.65;95855.31;5132739;27;20495;-49
2023/12/30 08:47:15;;;;;;;17.50;3.60;;;;;;;13.15;54.72;95840.88;5131469;28;20946;-49
2023/12/30 08:49:44;;;;;;;11.47;3.37;;;;;;;13.72;54.60;95846.44;5132020;28;20439;-49
2023/12/30 08:52:14;;;;;;;5.90;2.07;;;;;;;14.26;53.41;95826.88;5131533;28;21015;-48
2023/12/30 08:54:43;;;;;;;8.03;3.60;;;;;;;14.15;52.56;95820.03;5131469;28;20557;-49
2023/12/30 08:57:11;;;;;;;3.00;2.80;;;;;;;14.08;49.61;95827.56;5132088;28;20946;-48
2023/12/30 08:59:40;;;;;;;9.50;2.83;;;;;;;14.34;48.68;95831.66;5118670;28;20443;-48
2023/12/30 09:02:09;;;;;;;3.33;3.03;;;;;;;14.53;52.90;95814.66;5105171;28;20811;-48
2023/12/30 09:04:37;;;;;;;4.37;2.90;;;;;;;15.39;49.42;95815.56;5131858;28;20438;-48
2023/12/30 09:07:06;;;;;;;3.80;2.90;;;;;;;15.44;47.85;95820.81;5132240;28;20926;-48
2023/12/30 09:09:36;;;;;;;2.40;2.23;;;;;;;15.69;49.25;95813.31;5131477;27;20520;-48
2023/12/30 09:12:05;;;;;;;2.83;2.67;;;;;;;15.75;49.38;95808.69;5132010;27;20446;-48
2023/12/30 09:14:34;;;;;;;3.33;3.13;;;;;;;15.99;48.94;95806.72;5131574;28;20434;-47
2023/12/30 09:17:02;;;;;;;4.70;1.90;;;;;;;15.41;44.06;95802.69;5134723;27;20445;-58
2023/12/30 09:19:31;;;;;;;3.73;3.20;;;;;;;15.00;45.06;95813.88;5135741;27;20474;-57
2023/12/30 09:21:59;;;;;;;4.57;2.87;;;;;;;14.63;46.24;95787.88;5135556;27;20502;-58
2023/12/30 09:24:28;;;;;;;5.43;3.27;;;;;;;15.48;44.78;95816.56;5134441;27;20435;-59
2023/12/30 09:26:58;;;;;;;3.13;2.20;;;;;;;15.26;44.75;95811.72;5136026;27;20431;-59
2023/12/30 09:29:27;;;;;;;2.93;2.73;;;;;;;14.85;45.56;95814.06;5136095;27;20832;-59
2023/12/30 09:31:55;;;;;;;4.13;3.27;;;;;;;14.72;45.95;95806.75;5135981;27;20829;-61
2023/12/30 09:34:24;;;;;;;9.33;2.83;;;;;;;14.73;45.97;95784.31;5135646;27;20549;-58
2023/12/30 09:37:08;;;;;;;2.77;2.43;;;;;;;14.71;46.83;95791.81;5135674;27;20922;-58
2023/12/30 09:39:37;;;;;;;2.77;2.50;;;;;;;15.59;47.03;95778.72;5134954;27;20462;-60
2023/12/30 09:42:07;;;;;;;6.20;1.90;;;;;;;15.72;44.65;95779.84;5128514;27;20558;-60
2023/12/30 09:44:37;;;;;;;2.40;1.77;;;;;;;16.41;43.89;95773.66;5135896;27;20434;-60
2023/12/30 09:47:10;;;;;;;4.57;1.97;;;;;;;16.54;43.48;95772.13;5135798;27;20473;-60
2023/12/30 09:49:41;;;;;;;4.90;1.53;;;;;;;17.10;41.65;95765.41;5136138;27;20438;-60
2023/12/30 09:52:10;;;;;;;2.93;2.80;;;;;;;16.54;42.37;95767.59;5134592;27;20466;-60
2023/12/30 09:54:40;;;;;;;4.17;2.53;;;;;;;16.42;43.42;95737.78;5135950;27;20442;-59
2023/12/30 09:57:18;;;;;;;3.10;2.80;;;;;;;14.56;45.53;95760.75;5135278;27;20434;-59
2023/12/30 09:59:48;;;;;;;2.00;1.90;;;;;;;15.10;45.26;95765.69;5134691;27;20820;-58
2023/12/30 10:02:17;;;;;;;2.60;1.43;;;;;;;15.68;43.94;95749.47;5135023;27;20973;-59
2023/12/30 10:04:45;;;;;;;6.73;1.87;;;;;;;16.46;43.25;95744.16;5135282;27;20492;-61
2023/12/30 10:07:14;;;;;;;3.40;2.60;;;;;;;16.97;43.03;95741.31;5135047;27;20470;-61
2023/12/30 10:09:43;;;;;;;5.63;2.37;;;;;;;17.59;42.10;95735.16;5135377;27;20430;-63
2023/12/30 10:12:11;;;;;;;3.17;1.57;;;;;;;18.28;39.81;95727.59;5135186;27;20876;-62
2023/12/30 10:14:42;;;;;;;1.37;1.37;;;;;;;18.44;38.89;95726.13;5134963;27;20796;-61
2023/12/30 10:17:10;;;;;;;3.63;3.43;;;;;;;18.67;38.39;95713.47;5134522;27;20474;-62
2023/12/30 10:19:39;;;;;;;5.47;1.53;;;;;;;18.84;37.80;95717.00;5134593;27;20427;-61
2023/12/30 10:22:08;;;;;;;1.60;1.50;;;;;;;18.58;38.10;95716.09;5134848;27;20456;-61
2023/12/30 10:24:37;;;;;;;1.60;1.50;;;;;;;19.12;37.91;95711.38;5129307;27;20461;-61
2023/12/30 10:27:06;;;;;;;1.13;1.13;;;;;;;18.78;37.83;95701.31;5127332;27;20434;-61
2023/12/30 10:29:35;;;;;;;5.67;1.43;;;;;;;18.92;37.61;95692.03;5134715;27;20870;-61
2023/12/30 10:32:22;;;;;;;1.63;1.53;;;;;;;18.63;38.40;95694.50;5134484;27;20446;-61
2023/12/30 10:34:51;;;;;;;2.17;2.07;;;;;;;18.29;38.19;95680.91;5134989;27;20515;-61
2023/12/30 10:37:24;;;;;;;1.50;1.00;;;;;;;18.77;37.44;95678.28;5134371;27;20481;-61
2023/12/30 10:39:55;;;;;;;1.73;1.63;;;;;;;18.74;37.35;95671.63;5123705;27;20947;-62
2023/12/30 10:42:24;;;;;;;1.57;1.47;;;;;;;18.47;37.92;95673.75;5132758;27;20950;-61
2023/12/30 10:44:53;;;;;;;1.00;0.80;;;;;;;19.03;37.31;95669.16;5134575;27;20442;-61
2023/12/30 10:47:25;;;;;;;2.87;0.93;;;;;;;19.53;37.69;95658.78;5134049;27;20435;-62
2023/12/30 10:50:04;;;;;;;1.30;1.00;;;;;;;19.92;35.98;95660.47;5134444;27;20442;-62
2023/12/30 10:52:37;;;;;;;3.07;1.10;;;;;;;19.46;36.44;95657.66;5125741;27;20466;-62
2023/12/30 10:55:10;;;;;;;1.87;1.77;;;;;;;19.20;37.09;95659.53;5129280;27;20434;-61
2023/12/30 10:57:46;;;;;;;1.57;1.10;;;;;;;18.88;37.18;95636.56;5134616;27;20845;-60
2023/12/30 11:00:18;;;;;;;1.37;0.90;;;;;;;18.85;37.73;95658.69;5134540;27;20430;-60
2023/12/30 11:02:49;;;;;;;1.60;1.40;;;;;;;18.72;38.04;95643.50;5134420;27;20445;-60
2023/12/30 11:05:31;;;;;;;1.80;1.70;;;;;;;18.02;38.56;95603.25;5134132;27;20838;-59
2023/12/30 11:07:59;;;;;;;1.23;1.13;;;;;;;17.97;38.96;95644.44;5133689;27;20908;-59
2023/12/30 11:10:28;;;;;;;2.13;1.73;;;;;;;18.52;38.14;95644.09;5134206;27;20434;-60
2023/12/30 11:12:58;;;;;;;1.43;0.83;;;;;;;18.74;38.13;95631.34;5133255;27;20537;-59
2023/12/30 11:15:28;;;;;;;2.63;2.50;;;;;;;18.93;38.23;95631.84;5133735;27;20438;-58
2023/12/30 11:17:59;;;;;;;4.53;1.20;;;;;;;18.91;37.66;95625.22;5132760;27;20481;-58
2023/12/30 11:20:32;;;;;;;3.67;2.83;;;;;;;19.14;37.30;95623.97;5133537;27;20765;-54
2023/12/30 11:23:02;;;;;;;0.80;0.80;;;;;;;18.69;37.66;95574.31;5133702;27;20442;-52
2023/12/30 11:25:37;;;;;;;2.20;2.00;;;;;;;18.67;37.97;95624.84;5134025;27;20918;-52
2023/12/30 11:28:20;;;;;;;1.53;1.27;;;;;;;18.73;38.59;95616.34;5108283;27;20446;-52
2023/12/30 11:30:57;;;;;;;0.80;0.80;;;;;;;19.20;37.74;95611.19;5133568;27;20445;-52
2023/12/30 11:33:28;;;;;;;0.73;0.70;;;;;;;19.92;40.28;95612.06;5133831;27;20438;-52
2023/12/30 11:35:57;;;;;;;0.63;0.63;;;;;;;20.77;39.07;95581.28;5133126;27;20863;-52
2023/12/30 11:38:30;;;;;;;0.80;0.77;;;;;;;19.92;36.41;95601.31;5132791;27;20534;-52
2023/12/30 11:41:01;;;;;;;1.73;1.30;;;;;;;20.35;38.96;95603.06;5133387;27;20884;-53
2023/12/30 11:43:29;;;;;;;0.70;0.70;;;;;;;20.18;36.05;95610.09;5133012;27;20485;-56
2023/12/30 11:46:00;;;;;;;1.37;1.10;;;;;;;19.57;37.20;95605.16;5133564;27;20970;-57
2023/12/30 11:48:30;;;;;;;5.30;2.27;;;;;;;19.37;37.42;95608.50;5133573;27;20499;-57
2023/12/30 11:50:59;;;;;;;11.60;0.90;;;;;;;19.33;37.53;95610.22;5133021;27;20474;-60